sensor_id;sensor_type;location;lat;lon;timestamp;pressure;altitude;pressure_sealevel;temperature;humidity
6132;BME280;3097;42.692;23.278;2022-08-21T00:01:46;94473.50;;;21.91;96.30
6132;BME280;3097;42.692;23.278;2022-08-21T00:04:12;94458.84;;;21.90;96.44
6132;BME280;3097;42.692;23.278;2022-08-21T00:06:38;94461.81;;;21.97;96.27
6132;BME280;3097;42.692;23.278;2022-08-21T00:09:06;94473.09;;;21.98;95.73
6132;BME280;3097;42.692;23.278;2022-08-21T00:11:34;94471.56;;;21.97;95.50
6132;BME280;3097;42.692;23.278;2022-08-21T00:14:00;94465.53;;;21.96;95.80
6132;BME280;3097;42.692;23.278;2022-08-21T00:16:26;94461.81;;;21.97;95.87
6132;BME280;3097;42.692;23.278;2022-08-21T00:18:52;94461.06;;;21.97;95.81
6132;BME280;3097;42.692;23.278;2022-08-21T00:21:17;94464.72;;;21.96;95.68
6132;BME280;3097;42.692;23.278;2022-08-21T00:23:43;94456.69;;;21.92;96.15
6132;BME280;3097;42.692;23.278;2022-08-21T00:26:09;94443.09;;;21.90;96.34
6132;BME280;3097;42.692;23.278;2022-08-21T00:28:35;94446.78;;;21.89;96.00
6132;BME280;3097;42.692;23.278;2022-08-21T00:31:00;94434.28;;;21.86;95.63
6132;BME280;3097;42.692;23.278;2022-08-21T00:33:29;94440.31;;;21.87;96.61
6132;BME280;3097;42.692;23.278;2022-08-21T00:35:56;94447.75;;;21.93;95.71
6132;BME280;3097;42.692;23.278;2022-08-21T00:38:21;94448.47;;;21.85;96.03
6132;BME280;3097;42.692;23.278;2022-08-21T00:40:53;94430.53;;;21.79;94.62
6132;BME280;3097;42.692;23.278;2022-08-21T00:43:23;94448.97;;;21.87;95.08
6132;BME280;3097;42.692;23.278;2022-08-21T00:45:49;94448.59;;;21.80;94.91
6132;BME280;3097;42.692;23.278;2022-08-21T00:48:15;94451.84;;;21.77;95.64
6132;BME280;3097;42.692;23.278;2022-08-21T00:50:48;94442.78;;;21.61;96.60
6132;BME280;3097;42.692;23.278;2022-08-21T00:53:16;94451.97;;;21.72;96.48
6132;BME280;3097;42.692;23.278;2022-08-21T00:55:42;94449.03;;;21.74;96.52
6132;BME280;3097;42.692;23.278;2022-08-21T00:58:11;94452.72;;;21.73;96.20
6132;BME280;3097;42.692;23.278;2022-08-21T01:00:41;94449.63;;;21.71;96.52
6132;BME280;3097;42.692;23.278;2022-08-21T01:03:10;94443.13;;;21.68;96.57
6132;BME280;3097;42.692;23.278;2022-08-21T01:05:36;94438.38;;;21.70;96.37
6132;BME280;3097;42.692;23.278;2022-08-21T01:08:03;94441.78;;;21.71;96.20
6132;BME280;3097;42.692;23.278;2022-08-21T01:10:29;94414.84;;;21.56;96.19
6132;BME280;3097;42.692;23.278;2022-08-21T01:12:55;94434.19;;;21.69;96.42
6132;BME280;3097;42.692;23.278;2022-08-21T01:15:25;94433.91;;;21.71;96.36
6132;BME280;3097;42.692;23.278;2022-08-21T01:17:53;94432.06;;;21.71;96.41
6132;BME280;3097;42.692;23.278;2022-08-21T01:20:19;94420.78;;;21.71;95.56
6132;BME280;3097;42.692;23.278;2022-08-21T01:22:44;94415.47;;;21.62;95.87
6132;BME280;3097;42.692;23.278;2022-08-21T01:25:13;94423.94;;;21.59;96.27
6132;BME280;3097;42.692;23.278;2022-08-21T01:27:40;94428.75;;;21.57;95.92
6132;BME280;3097;42.692;23.278;2022-08-21T01:30:15;94422.66;;;21.48;96.74
6132;BME280;3097;42.692;23.278;2022-08-21T01:32:43;94422.03;;;21.51;96.16
6132;BME280;3097;42.692;23.278;2022-08-21T01:35:10;94418.97;;;21.49;96.15
6132;BME280;3097;42.692;23.278;2022-08-21T01:37:36;94419.75;;;21.49;95.88
6132;BME280;3097;42.692;23.278;2022-08-21T01:40:03;94397.09;;;21.31;96.22
6132;BME280;3097;42.692;23.278;2022-08-21T01:42:29;94418.00;;;21.45;95.91
6132;BME280;3097;42.692;23.278;2022-08-21T01:44:54;94430.34;;;21.44;96.24
6132;BME280;3097;42.692;23.278;2022-08-21T01:47:20;94428.50;;;21.45;96.19
6132;BME280;3097;42.692;23.278;2022-08-21T01:49:45;94430.78;;;21.38;97.23
6132;BME280;3097;42.692;23.278;2022-08-21T01:52:11;94437.38;;;21.35;96.92
6132;BME280;3097;42.692;23.278;2022-08-21T01:54:37;94430.91;;;21.33;96.44
6132;BME280;3097;42.692;23.278;2022-08-21T01:57:03;94420.91;;;21.35;96.47
6132;BME280;3097;42.692;23.278;2022-08-21T01:59:29;94416.72;;;21.34;96.52
6132;BME280;3097;42.692;23.278;2022-08-21T02:01:54;94426.25;;;21.30;96.59
6132;BME280;3097;42.692;23.278;2022-08-21T02:04:20;94436.72;;;21.30;96.85
6132;BME280;3097;42.692;23.278;2022-08-21T02:06:46;94439.53;;;21.33;96.18
6132;BME280;3097;42.692;23.278;2022-08-21T02:09:12;94435.72;;;21.39;96.52
6132;BME280;3097;42.692;23.278;2022-08-21T02:11:39;94442.81;;;21.39;96.59
6132;BME280;3097;42.692;23.278;2022-08-21T02:14:09;94439.59;;;21.42;97.09
6132;BME280;3097;42.692;23.278;2022-08-21T02:16:38;94439.28;;;21.43;96.77
6132;BME280;3097;42.692;23.278;2022-08-21T02:19:04;94442.88;;;21.47;96.67
6132;BME280;3097;42.692;23.278;2022-08-21T02:21:30;94440.53;;;21.46;96.61
6132;BME280;3097;42.692;23.278;2022-08-21T02:23:56;94432.91;;;21.36;96.39
6132;BME280;3097;42.692;23.278;2022-08-21T02:26:21;94442.03;;;21.38;96.68
6132;BME280;3097;42.692;23.278;2022-08-21T02:28:47;94440.69;;;21.41;96.18
6132;BME280;3097;42.692;23.278;2022-08-21T02:31:13;94439.41;;;21.38;96.81
6132;BME280;3097;42.692;23.278;2022-08-21T02:33:39;94427.78;;;21.31;96.54
6132;BME280;3097;42.692;23.278;2022-08-21T02:36:05;94430.91;;;21.33;96.33
6132;BME280;3097;42.692;23.278;2022-08-21T02:38:33;94440.97;;;21.39;96.67
6132;BME280;3097;42.692;23.278;2022-08-21T02:41:00;94447.28;;;21.38;96.26
6132;BME280;3097;42.692;23.278;2022-08-21T02:43:27;94448.97;;;21.34;96.10
6132;BME280;3097;42.692;23.278;2022-08-21T02:45:54;94445.56;;;21.34;95.85
6132;BME280;3097;42.692;23.278;2022-08-21T02:48:24;94444.94;;;21.37;95.67
6132;BME280;3097;42.692;23.278;2022-08-21T02:51:08;94445.25;;;21.35;95.50
6132;BME280;3097;42.692;23.278;2022-08-21T02:53:35;94439.25;;;21.35;95.65
6132;BME280;3097;42.692;23.278;2022-08-21T02:56:03;94446.78;;;21.36;95.68
6132;BME280;3097;42.692;23.278;2022-08-21T02:58:38;94440.00;;;21.35;95.69
6132;BME280;3097;42.692;23.278;2022-08-21T03:01:05;94439.25;;;21.35;95.89
6132;BME280;3097;42.692;23.278;2022-08-21T03:03:35;94434.25;;;21.24;95.72
6132;BME280;3097;42.692;23.278;2022-08-21T03:06:01;94449.75;;;21.35;95.79
6132;BME280;3097;42.692;23.278;2022-08-21T03:08:26;94427.16;;;21.25;95.83
6132;BME280;3097;42.692;23.278;2022-08-21T03:10:52;94449.00;;;21.43;95.69
6132;BME280;3097;42.692;23.278;2022-08-21T03:13:19;94453.16;;;21.44;95.06
6132;BME280;3097;42.692;23.278;2022-08-21T03:15:46;94440.53;;;21.46;95.43
6132;BME280;3097;42.692;23.278;2022-08-21T03:18:12;94450.09;;;21.42;95.15
6132;BME280;3097;42.692;23.278;2022-08-21T03:20:40;94448.97;;;21.34;95.59
6132;BME280;3097;42.692;23.278;2022-08-21T03:23:06;94447.88;;;21.35;96.09
6132;BME280;3097;42.692;23.278;2022-08-21T03:25:33;94450.69;;;21.39;95.99
6132;BME280;3097;42.692;23.278;2022-08-21T03:28:00;94454.38;;;21.38;95.87
6132;BME280;3097;42.692;23.278;2022-08-21T03:30:26;94453.59;;;21.37;95.85
6132;BME280;3097;42.692;23.278;2022-08-21T03:32:52;94447.56;;;21.37;96.11
6132;BME280;3097;42.692;23.278;2022-08-21T03:35:18;94444.78;;;21.33;95.77
6132;BME280;3097;42.692;23.278;2022-08-21T03:37:44;94438.88;;;21.28;96.10
6132;BME280;3097;42.692;23.278;2022-08-21T03:40:12;94433.16;;;21.26;96.23
6132;BME280;3097;42.692;23.278;2022-08-21T03:42:38;94436.75;;;21.16;96.61
6132;BME280;3097;42.692;23.278;2022-08-21T03:45:05;94441.84;;;21.12;97.29
6132;BME280;3097;42.692;23.278;2022-08-21T03:47:30;94445.88;;;20.96;98.70
6132;BME280;3097;42.692;23.278;2022-08-21T03:49:56;94441.06;;;20.76;100.00
6132;BME280;3097;42.692;23.278;2022-08-21T03:52:21;94447.19;;;20.71;100.00
6132;BME280;3097;42.692;23.278;2022-08-21T03:54:47;94453.78;;;20.69;100.00
6132;BME280;3097;42.692;23.278;2022-08-21T03:57:13;94435.00;;;20.53;100.00
6132;BME280;3097;42.692;23.278;2022-08-21T03:59:38;94456.72;;;20.54;100.00
6132;BME280;3097;42.692;23.278;2022-08-21T04:02:08;94460.41;;;20.53;100.00
6132;BME280;3097;42.692;23.278;2022-08-21T04:04:34;94460.31;;;20.58;100.00
6132;BME280;3097;42.692;23.278;2022-08-21T04:07:00;94460.81;;;20.60;100.00
6132;BME280;3097;42.692;23.278;2022-08-21T04:09:26;94453.03;;;20.55;100.00
6132;BME280;3097;42.692;23.278;2022-08-21T04:11:52;94466.44;;;20.39;100.00
6132;BME280;3097;42.692;23.278;2022-08-21T04:14:19;94472.03;;;20.33;100.00
6132;BME280;3097;42.692;23.278;2022-08-21T04:16:45;94475.16;;;20.21;100.00
6132;BME280;3097;42.692;23.278;2022-08-21T04:19:12;94470.59;;;20.13;100.00
6132;BME280;3097;42.692;23.278;2022-08-21T04:21:41;94466.22;;;20.08;100.00
6132;BME280;3097;42.692;23.278;2022-08-21T04:24:08;94461.38;;;20.02;100.00
6132;BME280;3097;42.692;23.278;2022-08-21T04:26:36;94436.38;;;19.82;100.00
6132;BME280;3097;42.692;23.278;2022-08-21T04:29:03;94456.91;;;20.16;100.00
6132;BME280;3097;42.692;23.278;2022-08-21T04:31:30;94458.97;;;20.19;100.00
6132;BME280;3097;42.692;23.278;2022-08-21T04:33:55;94464.00;;;20.29;100.00
6132;BME280;3097;42.692;23.278;2022-08-21T04:36:22;94465.88;;;20.42;100.00
6132;BME280;3097;42.692;23.278;2022-08-21T04:38:48;94459.06;;;20.55;100.00
6132;BME280;3097;42.692;23.278;2022-08-21T04:41:14;94457.97;;;20.70;100.00
6132;BME280;3097;42.692;23.278;2022-08-21T04:43:39;94463.50;;;20.82;100.00
6132;BME280;3097;42.692;23.278;2022-08-21T04:46:05;94463.50;;;20.82;100.00
6132;BME280;3097;42.692;23.278;2022-08-21T04:48:31;94444.94;;;20.78;100.00
6132;BME280;3097;42.692;23.278;2022-08-21T04:53:27;94462.97;;;20.94;100.00
6132;BME280;3097;42.692;23.278;2022-08-21T04:55:56;94459.56;;;20.93;100.00
6132;BME280;3097;42.692;23.278;2022-08-21T04:58:24;94447.66;;;21.09;100.00
6132;BME280;3097;42.692;23.278;2022-08-21T05:00:53;94452.22;;;21.40;99.13
6132;BME280;3097;42.692;23.278;2022-08-21T05:03:20;94441.19;;;21.82;95.56
6132;BME280;3097;42.692;23.278;2022-08-21T05:05:46;94460.31;;;22.53;91.29
6132;BME280;3097;42.692;23.278;2022-08-21T05:08:15;94434.75;;;22.76;88.37
6132;BME280;3097;42.692;23.278;2022-08-21T05:10:41;94471.72;;;23.14;87.30
6132;BME280;3097;42.692;23.278;2022-08-21T05:13:10;94471.84;;;23.09;88.82
6132;BME280;3097;42.692;23.278;2022-08-21T05:15:38;94477.88;;;23.01;88.00
6132;BME280;3097;42.692;23.278;2022-08-21T05:18:04;94461.94;;;22.80;87.27
6132;BME280;3097;42.692;23.278;2022-08-21T05:20:31;94471.97;;;22.69;88.98
6132;BME280;3097;42.692;23.278;2022-08-21T05:23:00;94467.13;;;22.54;88.79
6132;BME280;3097;42.692;23.278;2022-08-21T05:25:26;94464.63;;;22.49;91.19
6132;BME280;3097;42.692;23.278;2022-08-21T05:27:52;94469.59;;;22.59;90.86
6132;BME280;3097;42.692;23.278;2022-08-21T05:30:19;94460.94;;;22.59;91.28
6132;BME280;3097;42.692;23.278;2022-08-21T05:32:45;94458.00;;;22.52;91.67
6132;BME280;3097;42.692;23.278;2022-08-21T05:35:11;94460.59;;;22.43;90.94
6132;BME280;3097;42.692;23.278;2022-08-21T05:37:37;94455.97;;;22.40;91.08
6132;BME280;3097;42.692;23.278;2022-08-21T05:40:04;94453.16;;;22.36;91.69
6132;BME280;3097;42.692;23.278;2022-08-21T05:42:30;94451.63;;;22.35;91.38
6132;BME280;3097;42.692;23.278;2022-08-21T05:44:55;94451.47;;;22.32;90.84
6132;BME280;3097;42.692;23.278;2022-08-21T05:47:21;94450.19;;;22.21;91.48
6132;BME280;3097;42.692;23.278;2022-08-21T05:56:19;94446.94;;;22.15;92.98
6132;BME280;3097;42.692;23.278;2022-08-21T05:58:44;94417.47;;;21.96;93.19
6132;BME280;3097;42.692;23.278;2022-08-21T06:01:10;94453.72;;;22.16;93.96
6132;BME280;3097;42.692;23.278;2022-08-21T06:03:38;94452.97;;;22.16;94.20
6132;BME280;3097;42.692;23.278;2022-08-21T06:06:04;94429.56;;;21.97;94.69
6132;BME280;3097;42.692;23.278;2022-08-21T06:08:30;94452.00;;;22.12;94.76
6132;BME280;3097;42.692;23.278;2022-08-21T06:10:59;94443.34;;;22.03;94.67
6132;BME280;3097;42.692;23.278;2022-08-21T06:13:26;94450.97;;;22.21;95.55
6132;BME280;3097;42.692;23.278;2022-08-21T06:16:04;94432.13;;;22.28;94.12
6132;BME280;3097;42.692;23.278;2022-08-21T06:18:31;94445.69;;;22.87;93.47
6132;BME280;3097;42.692;23.278;2022-08-21T06:20:57;94455.00;;;23.44;89.16
6132;BME280;3097;42.692;23.278;2022-08-21T06:23:22;94450.16;;;23.64;88.53
6132;BME280;3097;42.692;23.278;2022-08-21T06:25:48;94452.34;;;23.62;88.66
6132;BME280;3097;42.692;23.278;2022-08-21T06:28:13;94450.97;;;23.56;88.87
6132;BME280;3097;42.692;23.278;2022-08-21T06:30:39;94450.81;;;23.43;87.94
6132;BME280;3097;42.692;23.278;2022-08-21T06:33:05;94449.13;;;23.30;88.82
6132;BME280;3097;42.692;23.278;2022-08-21T06:35:31;94446.16;;;23.23;89.77
6132;BME280;3097;42.692;23.278;2022-08-21T06:37:57;94457.63;;;23.19;90.53
6132;BME280;3097;42.692;23.278;2022-08-21T06:40:23;94458.88;;;23.04;90.54
6132;BME280;3097;42.692;23.278;2022-08-21T06:42:49;94453.59;;;23.04;91.63
6132;BME280;3097;42.692;23.278;2022-08-21T06:45:14;94445.56;;;23.09;91.35
6132;BME280;3097;42.692;23.278;2022-08-21T06:47:40;94462.75;;;23.15;89.33
6132;BME280;3097;42.692;23.278;2022-08-21T06:50:06;94419.13;;;22.97;89.87
6132;BME280;3097;42.692;23.278;2022-08-21T06:52:36;94454.84;;;23.24;89.22
6132;BME280;3097;42.692;23.278;2022-08-21T06:55:04;94453.13;;;23.36;88.25
6132;BME280;3097;42.692;23.278;2022-08-21T06:57:30;94461.47;;;23.56;89.25
6132;BME280;3097;42.692;23.278;2022-08-21T06:59:55;94445.50;;;23.69;88.67
6132;BME280;3097;42.692;23.278;2022-08-21T07:02:21;94465.97;;;24.27;89.02
6132;BME280;3097;42.692;23.278;2022-08-21T07:04:47;94465.75;;;24.91;85.42
6132;BME280;3097;42.692;23.278;2022-08-21T07:07:12;94470.34;;;25.03;80.04
6132;BME280;3097;42.692;23.278;2022-08-21T07:09:38;94475.03;;;24.97;79.60
6132;BME280;3097;42.692;23.278;2022-08-21T07:12:03;94449.31;;;24.65;79.29
6132;BME280;3097;42.692;23.278;2022-08-21T07:14:29;94469.69;;;24.56;79.46
6132;BME280;3097;42.692;23.278;2022-08-21T07:16:55;94478.22;;;24.53;81.69
6132;BME280;3097;42.692;23.278;2022-08-21T07:19:20;94480.50;;;24.34;81.19
6132;BME280;3097;42.692;23.278;2022-08-21T07:21:46;94471.84;;;24.24;80.32
6132;BME280;3097;42.692;23.278;2022-08-21T07:24:12;94470.59;;;24.13;81.87
6132;BME280;3097;42.692;23.278;2022-08-21T07:26:38;94471.53;;;24.17;83.14
6132;BME280;3097;42.692;23.278;2022-08-21T07:29:04;94478.75;;;24.38;83.31
6132;BME280;3097;42.692;23.278;2022-08-21T07:31:30;94473.22;;;24.60;80.51
6132;BME280;3097;42.692;23.278;2022-08-21T07:33:56;94460.50;;;24.62;80.70
6132;BME280;3097;42.692;23.278;2022-08-21T07:36:22;94452.25;;;25.14;79.67
6132;BME280;3097;42.692;23.278;2022-08-21T07:38:47;94443.25;;;25.68;79.12
6132;BME280;3097;42.692;23.278;2022-08-21T07:41:19;94444.78;;;26.39;76.14
6132;BME280;3097;42.692;23.278;2022-08-21T07:43:45;94444.50;;;26.92;75.22
6132;BME280;3097;42.692;23.278;2022-08-21T07:46:11;94440.56;;;26.99;72.35
6132;BME280;3097;42.692;23.278;2022-08-21T07:48:37;94439.97;;;27.05;71.18
6132;BME280;3097;42.692;23.278;2022-08-21T07:51:07;94444.13;;;27.18;72.55
6132;BME280;3097;42.692;23.278;2022-08-21T07:53:34;94437.09;;;27.10;70.48
6132;BME280;3097;42.692;23.278;2022-08-21T07:56:01;94417.88;;;26.73;69.17
6132;BME280;3097;42.692;23.278;2022-08-21T07:58:27;94442.78;;;26.60;68.87
6132;BME280;3097;42.692;23.278;2022-08-21T08:00:52;94449.31;;;26.38;70.18
6132;BME280;3097;42.692;23.278;2022-08-21T08:03:18;94434.75;;;26.08;70.56
6132;BME280;3097;42.692;23.278;2022-08-21T08:05:43;94441.97;;;25.99;72.20
6132;BME280;3097;42.692;23.278;2022-08-21T08:08:09;94446.50;;;26.10;73.44
6132;BME280;3097;42.692;23.278;2022-08-21T08:10:35;94444.44;;;26.16;74.84
6132;BME280;3097;42.692;23.278;2022-08-21T08:13:01;94444.94;;;26.09;72.51
6132;BME280;3097;42.692;23.278;2022-08-21T08:15:27;94437.94;;;26.13;73.34
6132;BME280;3097;42.692;23.278;2022-08-21T08:17:54;94439.25;;;26.32;70.13
6132;BME280;3097;42.692;23.278;2022-08-21T08:20:20;94442.03;;;26.35;69.02
6132;BME280;3097;42.692;23.278;2022-08-21T08:22:48;94436.09;;;26.38;69.56
6132;BME280;3097;42.692;23.278;2022-08-21T08:25:15;94443.13;;;26.58;70.21
6132;BME280;3097;42.692;23.278;2022-08-21T08:27:41;94435.75;;;27.16;69.80
6132;BME280;3097;42.692;23.278;2022-08-21T08:30:08;94434.69;;;27.61;67.20
6132;BME280;3097;42.692;23.278;2022-08-21T08:32:34;94447.47;;;28.02;66.51
6132;BME280;3097;42.692;23.278;2022-08-21T08:35:01;94449.09;;;27.91;64.21
6132;BME280;3097;42.692;23.278;2022-08-21T08:37:27;94440.34;;;27.75;63.72
6132;BME280;3097;42.692;23.278;2022-08-21T08:39:52;94440.97;;;28.00;65.46
6132;BME280;3097;42.692;23.278;2022-08-21T08:42:30;94444.31;;;28.12;62.33
6132;BME280;3097;42.692;23.278;2022-08-21T08:45:00;94446.03;;;28.21;60.72
6132;BME280;3097;42.692;23.278;2022-08-21T08:47:27;94452.81;;;28.34;63.39
6132;BME280;3097;42.692;23.278;2022-08-21T08:50:04;94438.03;;;28.68;64.47
6132;BME280;3097;42.692;23.278;2022-08-21T08:52:31;94440.44;;;29.08;63.54
6132;BME280;3097;42.692;23.278;2022-08-21T08:55:16;94437.78;;;29.27;62.82
6132;BME280;3097;42.692;23.278;2022-08-21T08:57:46;94419.81;;;29.20;57.46
6132;BME280;3097;42.692;23.278;2022-08-21T09:00:15;94416.44;;;28.85;56.89
6132;BME280;3097;42.692;23.278;2022-08-21T09:02:43;94428.25;;;28.87;59.36
6132;BME280;3097;42.692;23.278;2022-08-21T09:05:30;94416.81;;;28.33;57.74
6132;BME280;3097;42.692;23.278;2022-08-21T09:19:11;94407.81;;;28.72;61.33
6132;BME280;3097;42.692;23.278;2022-08-21T09:21:53;94410.00;;;28.51;62.91
6132;BME280;3097;42.692;23.278;2022-08-21T09:24:41;94391.59;;;28.58;63.00
6132;BME280;3097;42.692;23.278;2022-08-21T09:27:17;94401.16;;;28.78;60.70
6132;BME280;3097;42.692;23.278;2022-08-21T09:29:47;94397.44;;;28.83;62.49
6132;BME280;3097;42.692;23.278;2022-08-21T09:32:19;94385.25;;;28.78;60.93
6132;BME280;3097;42.692;23.278;2022-08-21T09:35:15;94388.56;;;28.40;59.59
6132;BME280;3097;42.692;23.278;2022-08-21T09:38:01;94389.59;;;28.04;60.77
6132;BME280;3097;42.692;23.278;2022-08-21T09:40:45;94364.06;;;27.21;62.28
6132;BME280;3097;42.692;23.278;2022-08-21T09:43:19;94387.28;;;27.00;63.81
6132;BME280;3097;42.692;23.278;2022-08-21T09:45:47;94381.47;;;26.94;64.71
6132;BME280;3097;42.692;23.278;2022-08-21T09:48:18;94365.28;;;26.84;64.15
6132;BME280;3097;42.692;23.278;2022-08-21T09:50:45;94388.81;;;27.01;63.82
6132;BME280;3097;42.692;23.278;2022-08-21T09:53:27;94377.78;;;26.99;64.33
6132;BME280;3097;42.692;23.278;2022-08-21T09:55:54;94375.78;;;27.08;63.93
6132;BME280;3097;42.692;23.278;2022-08-21T09:58:42;94358.09;;;26.96;64.35
6132;BME280;3097;42.692;23.278;2022-08-21T10:01:15;94373.25;;;27.12;65.45
6132;BME280;3097;42.692;23.278;2022-08-21T10:03:41;94372.91;;;27.13;65.34
6132;BME280;3097;42.692;23.278;2022-08-21T10:06:08;94369.50;;;27.13;66.83
6132;BME280;3097;42.692;23.278;2022-08-21T10:08:39;94363.66;;;27.07;65.28
6132;BME280;3097;42.692;23.278;2022-08-21T10:19:04;94355.53;;;27.00;65.64
6132;BME280;3097;42.692;23.278;2022-08-21T10:27:44;94350.19;;;27.12;66.66
6132;BME280;3097;42.692;23.278;2022-08-21T10:30:15;94344.34;;;27.34;66.62
6132;BME280;3097;42.692;23.278;2022-08-21T10:33:16;94343.19;;;27.63;62.51
6132;BME280;3097;42.692;23.278;2022-08-21T10:38:54;94340.16;;;27.33;62.01
6132;BME280;3097;42.692;23.278;2022-08-21T10:47:00;94337.09;;;27.04;64.27
6132;BME280;3097;42.692;23.278;2022-08-21T10:49:59;94339.66;;;27.00;61.57
6132;BME280;3097;42.692;23.278;2022-08-21T10:52:35;94332.00;;;26.83;62.66
6132;BME280;3097;42.692;23.278;2022-08-21T10:55:25;94322.84;;;26.80;64.85
6132;BME280;3097;42.692;23.278;2022-08-21T10:57:57;94331.81;;;26.64;64.78
6132;BME280;3097;42.692;23.278;2022-08-21T11:00:28;94315.28;;;26.39;66.27
6132;BME280;3097;42.692;23.278;2022-08-21T11:03:27;94317.34;;;26.45;66.94
6132;BME280;3097;42.692;23.278;2022-08-21T11:06:31;94317.81;;;26.23;66.68
6132;BME280;3097;42.692;23.278;2022-08-21T11:09:18;94308.13;;;26.15;67.50
6132;BME280;3097;42.692;23.278;2022-08-21T11:11:54;94281.41;;;25.92;67.97
6132;BME280;3097;42.692;23.278;2022-08-21T11:14:41;94299.84;;;26.16;67.30
6132;BME280;3097;42.692;23.278;2022-08-21T11:17:14;94279.41;;;26.01;68.59
6132;BME280;3097;42.692;23.278;2022-08-21T11:19:48;94293.38;;;26.26;66.83
6132;BME280;3097;42.692;23.278;2022-08-21T11:22:20;94299.41;;;26.39;67.65
6132;BME280;3097;42.692;23.278;2022-08-21T11:27:36;94272.44;;;26.33;67.62
6132;BME280;3097;42.692;23.278;2022-08-21T11:30:05;94297.72;;;26.46;68.88
6132;BME280;3097;42.692;23.278;2022-08-21T11:35:56;94294.22;;;26.42;66.66
6132;BME280;3097;42.692;23.278;2022-08-21T11:38:42;94288.09;;;26.54;67.68
6132;BME280;3097;42.692;23.278;2022-08-21T11:41:29;94285.56;;;26.57;68.88
6132;BME280;3097;42.692;23.278;2022-08-21T11:44:08;94282.28;;;26.61;67.36
6132;BME280;3097;42.692;23.278;2022-08-21T11:46:49;94290.81;;;26.70;66.55
6132;BME280;3097;42.692;23.278;2022-08-21T11:52:20;94292.94;;;26.92;66.18
6132;BME280;3097;42.692;23.278;2022-08-21T11:55:03;94284.13;;;26.88;63.19
6132;BME280;3097;42.692;23.278;2022-08-21T11:57:36;94278.63;;;26.93;63.40
6132;BME280;3097;42.692;23.278;2022-08-21T12:00:19;94284.91;;;26.88;63.76
6132;BME280;3097;42.692;23.278;2022-08-21T12:02:50;94286.31;;;26.98;64.50
6132;BME280;3097;42.692;23.278;2022-08-21T12:05:44;94285.38;;;26.78;64.04
6132;BME280;3097;42.692;23.278;2022-08-21T12:08:41;94271.06;;;26.51;63.82
6132;BME280;3097;42.692;23.278;2022-08-21T12:11:29;94264.94;;;26.35;65.77
6132;BME280;3097;42.692;23.278;2022-08-21T12:13:58;94264.31;;;26.26;65.26
6132;BME280;3097;42.692;23.278;2022-08-21T12:16:37;94272.00;;;26.19;65.33
6132;BME280;3097;42.692;23.278;2022-08-21T12:19:07;94266.75;;;25.95;65.79
6132;BME280;3097;42.692;23.278;2022-08-21T12:21:34;94268.63;;;25.94;67.16
6132;BME280;3097;42.692;23.278;2022-08-21T12:26:58;94274.00;;;26.10;67.27
6132;BME280;3097;42.692;23.278;2022-08-21T12:29:36;94274.56;;;26.15;67.47
6132;BME280;3097;42.692;23.278;2022-08-21T12:32:19;94262.13;;;26.16;68.46
6132;BME280;3097;42.692;23.278;2022-08-21T12:34:52;94272.66;;;26.28;67.30
6132;BME280;3097;42.692;23.278;2022-08-21T12:37:37;94278.59;;;26.37;67.27
6132;BME280;3097;42.692;23.278;2022-08-21T12:42:41;94276.72;;;26.38;66.78
6132;BME280;3097;42.692;23.278;2022-08-21T12:45:19;94277.25;;;26.43;65.07
6132;BME280;3097;42.692;23.278;2022-08-21T12:47:50;94264.75;;;26.28;65.50
6132;BME280;3097;42.692;23.278;2022-08-21T12:50:31;94261.44;;;26.31;64.76
6132;BME280;3097;42.692;23.278;2022-08-21T12:53:03;94265.41;;;26.25;65.06
6132;BME280;3097;42.692;23.278;2022-08-21T12:55:32;94265.94;;;26.18;65.46
6132;BME280;3097;42.692;23.278;2022-08-21T12:57:59;94246.84;;;25.97;65.60
6132;BME280;3097;42.692;23.278;2022-08-21T13:00:27;94267.84;;;26.06;65.23
6132;BME280;3097;42.692;23.278;2022-08-21T13:02:54;94275.78;;;26.06;65.73
6132;BME280;3097;42.692;23.278;2022-08-21T13:05:29;94270.81;;;26.04;64.98
6132;BME280;3097;42.692;23.278;2022-08-21T13:07:55;94263.22;;;26.03;67.85
6132;BME280;3097;42.692;23.278;2022-08-21T13:10:28;94269.47;;;26.10;64.96
6132;BME280;3097;42.692;23.278;2022-08-21T13:13:06;94254.97;;;26.04;64.42
6132;BME280;3097;42.692;23.278;2022-08-21T13:15:35;94264.00;;;26.03;65.55
6132;BME280;3097;42.692;23.278;2022-08-21T13:18:03;94260.50;;;25.87;66.49
6132;BME280;3097;42.692;23.278;2022-08-21T13:20:40;94254.56;;;25.90;66.83
6132;BME280;3097;42.692;23.278;2022-08-21T13:23:29;94247.28;;;25.99;66.59
6132;BME280;3097;42.692;23.278;2022-08-21T13:25:56;94246.50;;;25.99;66.50
6132;BME280;3097;42.692;23.278;2022-08-21T13:28:22;94222.75;;;25.87;66.64
6132;BME280;3097;42.692;23.278;2022-08-21T13:30:50;94239.25;;;25.96;66.33
6132;BME280;3097;42.692;23.278;2022-08-21T13:33:21;94232.09;;;25.96;66.68
6132;BME280;3097;42.692;23.278;2022-08-21T13:36:09;94215.47;;;25.96;67.14
6132;BME280;3097;42.692;23.278;2022-08-21T13:38:36;94218.78;;;25.93;66.76
6132;BME280;3097;42.692;23.278;2022-08-21T13:43:46;94240.09;;;26.12;65.87
6132;BME280;3097;42.692;23.278;2022-08-21T13:46:13;94218.56;;;25.98;65.80
6132;BME280;3097;42.692;23.278;2022-08-21T13:48:41;94228.75;;;26.11;65.12
6132;BME280;3097;42.692;23.278;2022-08-21T13:51:08;94225.97;;;26.20;66.04
6132;BME280;3097;42.692;23.278;2022-08-21T13:53:44;94229.19;;;26.26;64.93
6132;BME280;3097;42.692;23.278;2022-08-21T13:56:26;94230.59;;;26.23;66.10
6132;BME280;3097;42.692;23.278;2022-08-21T13:58:52;94235.88;;;26.23;67.01
6132;BME280;3097;42.692;23.278;2022-08-21T14:03:53;94225.56;;;26.06;68.50
6132;BME280;3097;42.692;23.278;2022-08-21T14:06:26;94226.34;;;26.06;68.17
6132;BME280;3097;42.692;23.278;2022-08-21T14:08:58;94219.75;;;26.00;69.01
6132;BME280;3097;42.692;23.278;2022-08-21T14:11:26;94215.88;;;26.10;69.09
6132;BME280;3097;42.692;23.278;2022-08-21T14:13:59;94211.28;;;26.07;69.02
6132;BME280;3097;42.692;23.278;2022-08-21T14:16:41;94221.25;;;26.13;70.16
6132;BME280;3097;42.692;23.278;2022-08-21T14:19:19;94211.69;;;26.09;68.87
6132;BME280;3097;42.692;23.278;2022-08-21T14:21:45;94224.44;;;26.19;68.68
6132;BME280;3097;42.692;23.278;2022-08-21T14:24:25;94228.88;;;26.15;69.16
6132;BME280;3097;42.692;23.278;2022-08-21T14:27:06;94213.91;;;25.95;68.44